Albany, Kentucky
Current Conditions -  °F | °C
As of 6:56 PM on Monday 22 Dec 2014 (Local Time) from KEKQ Reporting Station
Overcast Overcast  
Wind Chill: 12°   Ceiling: 3000
Heat Index: 12°   Visibility: 10mi
Dew Point:   Wind: 8mph
Humidity: 74%   Direction: 160°SSE
Pressure: 29.8"   Gusts: NA
Location:  36.69°N, 85.13°W
Report Text: KEKQ 230056Z AUTO 16007KT 10SM OVC030 12/08 A2980 RMK AO2 T01220077 SLP095
Loading
Personal Weather Stations






























Interactive Weather Map New forecast layout! Learn more

10-Day Weather Forecast

Advertisements
Track Severe Weather on mobile